Garden City, Missouri
Current Conditions -  °F | °C
As of 12:15 PM on Sunday 25 Jan 2015 (Local Time) from KRCM Reporting Station
Overcast Overcast  
Wind Chill: 28°   Ceiling: 1300
Heat Index: 37°   Visibility: 10mi
Dew Point: 32°   Wind: 17mph
Humidity: 81%   Direction: 300°WNW
Pressure: 29.77"   Gusts: 30mph
Location:  38.56°N, 94.19°W
Report Text: KRCM 251815Z AUTO 30015G26KT 10SM OVC013 03/00 A2977 RMK AO2
Loading
Personal Weather Stations






























Interactive Weather Map New forecast layout! Learn more

10-Day Weather Forecast

Advertisements
Track Severe Weather on mobile